Time;durP1;ratioP1;P1;durP2;ratioP2;P2;SDS_P1;SDS_P2;PMS_P1;PMS_P2;Temp;Humidity;BMP_temperature;BMP_pressure;BME280_temperature;BME280_humidity;BME280_pressure;Samples;Min_cycle;Max_cycle;Signal;HPM_P1;HPM_P2
2023/03/23 00:01:24;;;;;;;2.80;1.25;;;;;;;13.62;69.10;100017.75;5025225;28;20048;-70
2023/03/23 00:03:51;;;;;;;3.08;1.40;;;;;;;13.63;69.18;100026.34;5019680;28;20037;-70
2023/03/23 00:06:20;;;;;;;3.30;1.17;;;;;;;13.61;69.33;100043.75;5022562;28;20105;-70
2023/03/23 00:08:52;;;;;;;4.13;1.50;;;;;;;13.59;69.63;100049.00;5017539;28;20044;-70
2023/03/23 00:11:28;;;;;;;4.60;1.30;;;;;;;13.63;69.35;100045.38;5017467;28;20041;-70
2023/03/23 00:13:56;;;;;;;3.47;1.00;;;;;;;13.66;69.07;100029.69;5008649;28;20494;-70
2023/03/23 00:16:31;;;;;;;2.25;1.35;;;;;;;13.73;69.11;100012.19;5016622;28;20045;-69
2023/03/23 00:19:20;;;;;;;2.35;1.00;;;;;;;13.71;69.42;100030.41;5029828;28;20034;-69
2023/03/23 00:21:46;;;;;;;1.95;1.00;;;;;;;13.74;68.93;100009.50;5017298;28;20060;-71
2023/03/23 00:24:16;;;;;;;3.35;1.40;;;;;;;13.77;68.98;100014.59;5016150;28;20551;-66
2023/03/23 00:26:44;;;;;;;3.00;1.00;;;;;;;13.79;68.91;100023.22;5014056;28;21998;-66
2023/03/23 00:29:16;;;;;;;2.75;1.05;;;;;;;13.76;69.51;100023.31;5014693;28;20083;-66
2023/03/23 00:31:46;;;;;;;2.40;1.13;;;;;;;13.79;68.82;100017.16;5021706;28;20033;-66
2023/03/23 00:34:13;;;;;;;3.03;1.23;;;;;;;13.76;69.33;100019.88;5011797;28;20050;-66
2023/03/23 00:36:42;;;;;;;1.90;1.20;;;;;;;13.73;69.49;100026.03;5018940;28;20060;-66
2023/03/23 00:39:08;;;;;;;1.75;0.90;;;;;;;13.70;69.68;100030.47;5018139;28;20033;-66
2023/03/23 00:41:36;;;;;;;2.30;1.23;;;;;;;13.70;69.50;100026.13;5023682;28;20036;-66
2023/03/23 00:44:02;;;;;;;3.88;1.23;;;;;;;13.71;69.17;100025.19;5017231;28;20095;-66
2023/03/23 00:46:28;;;;;;;1.90;1.33;;;;;;;13.70;69.31;100025.25;5022368;28;20030;-66
2023/03/23 00:48:54;;;;;;;2.88;0.90;;;;;;;13.65;70.00;100034.97;5021236;28;20041;-66
2023/03/23 00:51:20;;;;;;;1.77;1.13;;;;;;;13.60;70.06;100031.66;5018485;28;20179;-66
2023/03/23 00:53:46;;;;;;;2.03;1.17;;;;;;;13.61;69.49;100028.16;5017722;28;20149;-66
2023/03/23 00:56:12;;;;;;;1.92;1.20;;;;;;;13.61;69.49;100026.41;5021635;28;20702;-66
2023/03/23 00:58:37;;;;;;;2.08;1.23;;;;;;;13.66;69.34;100021.91;5010057;28;20029;-66
2023/03/23 01:01:03;;;;;;;2.70;1.40;;;;;;;13.66;68.95;100013.25;5013614;28;20034;-66
2023/03/23 01:03:29;;;;;;;2.97;1.00;;;;;;;13.62;69.00;100011.69;5016136;28;20064;-66
2023/03/23 01:05:55;;;;;;;1.55;1.00;;;;;;;13.58;69.71;100018.72;5025829;28;20036;-66
2023/03/23 01:08:22;;;;;;;3.00;1.27;;;;;;;13.55;69.84;100017.09;5022843;28;20825;-66
2023/03/23 01:10:48;;;;;;;2.80;1.00;;;;;;;13.52;70.24;100009.41;5014932;28;20053;-66
2023/03/23 01:13:15;;;;;;;3.15;1.02;;;;;;;13.50;69.92;99998.19;5020416;28;20434;-66
2023/03/23 01:15:40;;;;;;;3.00;1.10;;;;;;;13.51;70.08;100014.63;5015201;28;20050;-66
2023/03/23 01:18:05;;;;;;;4.00;1.48;;;;;;;13.51;69.97;100009.44;5010521;28;20042;-66
2023/03/23 01:20:31;;;;;;;1.90;1.10;;;;;;;13.47;70.36;100011.25;5017283;28;20046;-65
2023/03/23 01:23:00;;;;;;;1.27;1.10;;;;;;;13.42;70.95;100012.31;5018897;28;20033;-66
2023/03/23 01:25:29;;;;;;;2.05;1.10;;;;;;;13.45;70.22;99997.50;5027925;28;20037;-66
2023/03/23 01:27:55;;;;;;;2.22;1.42;;;;;;;13.44;70.49;99994.97;5024216;28;20711;-66
2023/03/23 01:30:20;;;;;;;4.05;1.98;;;;;;;13.47;70.03;99980.09;5020066;28;20049;-66
2023/03/23 01:32:46;;;;;;;2.17;1.10;;;;;;;13.47;70.29;99982.72;5014191;28;20045;-66
2023/03/23 01:35:15;;;;;;;4.47;1.30;;;;;;;13.45;70.45;99992.31;5018318;28;20065;-66
2023/03/23 01:37:40;;;;;;;3.78;1.17;;;;;;;13.45;70.47;99988.84;5027702;28;20028;-66
2023/03/23 01:40:07;;;;;;;3.83;1.48;;;;;;;13.41;70.93;99995.91;5016189;28;20025;-66
2023/03/23 01:42:35;;;;;;;2.17;1.08;;;;;;;13.39;70.34;99987.31;5024512;28;20683;-66
2023/03/23 01:45:19;;;;;;;1.73;1.02;;;;;;;13.37;70.53;99993.44;5027434;28;20037;-68
2023/03/23 01:47:50;;;;;;;2.03;1.05;;;;;;;13.36;70.60;99991.75;5015628;28;20056;-66
2023/03/23 01:50:17;;;;;;;3.60;1.23;;;;;;;13.38;70.01;99988.22;5012683;28;20056;-66
2023/03/23 01:52:43;;;;;;;2.15;1.15;;;;;;;13.36;70.59;99997.78;5013776;28;20110;-66
2023/03/23 01:55:09;;;;;;;1.98;1.40;;;;;;;13.37;70.85;100001.25;5012162;28;20348;-65
2023/03/23 01:57:34;;;;;;;3.65;1.42;;;;;;;13.25;73.08;100051.78;5011740;28;20033;-66
2023/03/23 02:00:14;;;;;;;3.10;1.58;;;;;;;13.14;73.45;100048.69;5015782;28;20037;-66
2023/03/23 02:02:42;;;;;;;3.53;1.42;;;;;;;13.04;73.81;100030.81;5009576;28;20687;-65
2023/03/23 02:05:12;;;;;;;3.50;1.90;;;;;;;12.89;75.08;100047.66;5019014;28;20033;-66
2023/03/23 02:07:37;;;;;;;2.92;1.20;;;;;;;12.80;76.09;100058.28;5011871;28;20087;-66
2023/03/23 02:10:03;;;;;;;3.10;1.17;;;;;;;12.75;75.47;100034.25;5016237;28;20034;-66
2023/03/23 02:12:29;;;;;;;2.22;1.23;;;;;;;12.76;74.88;100029.00;5017555;28;20042;-65
2023/03/23 02:14:54;;;;;;;2.35;1.30;;;;;;;12.76;75.06;100047.16;5021624;28;20049;-66
2023/03/23 02:17:28;;;;;;;2.25;1.10;;;;;;;12.75;75.36;100034.25;5014329;28;20068;-66
2023/03/23 02:20:13;;;;;;;2.80;1.27;;;;;;;12.80;74.52;100025.44;5011593;28;20029;-66
2023/03/23 02:23:06;;;;;;;2.50;1.42;;;;;;;12.70;75.48;100026.56;5021140;28;20043;-66
2023/03/23 02:25:50;;;;;;;4.32;1.40;;;;;;;12.76;74.98;100013.44;5014427;28;20049;-65
2023/03/23 02:28:53;;;;;;;1.83;1.15;;;;;;;12.71;75.02;100010.13;5019562;28;20091;-66
2023/03/23 02:31:25;;;;;;;2.53;1.38;;;;;;;12.69;75.56;100011.09;5025281;28;20050;-65
2023/03/23 02:33:53;;;;;;;2.28;1.40;;;;;;;12.70;75.49;99994.63;5006796;28;20576;-66
2023/03/23 02:36:43;;;;;;;7.20;1.08;;;;;;;12.69;75.90;99995.53;5017992;28;20047;-65
2023/03/23 02:39:27;;;;;;;3.10;1.45;;;;;;;12.72;75.73;99979.88;5015659;28;20687;-66
2023/03/23 02:42:02;;;;;;;2.92;1.30;;;;;;;12.66;76.29;99974.88;5010668;28;20048;-66
2023/03/23 02:44:30;;;;;;;2.00;1.30;;;;;;;12.67;75.99;99974.00;5011683;28;20159;-66
2023/03/23 02:46:59;;;;;;;1.50;1.20;;;;;;;12.70;76.06;99973.91;5013099;28;20126;-66
2023/03/23 02:49:26;;;;;;;2.42;1.10;;;;;;;12.68;75.80;99979.13;5019094;28;20719;-66
2023/03/23 02:51:54;;;;;;;1.80;1.20;;;;;;;12.70;76.47;99969.53;5019358;28;20188;-65
2023/03/23 02:54:24;;;;;;;3.45;1.10;;;;;;;12.63;76.51;99973.22;5020395;28;20036;-65
2023/03/23 02:56:50;;;;;;;3.03;1.42;;;;;;;12.56;77.26;99971.69;5013979;28;20052;-66
2023/03/23 02:59:16;;;;;;;1.60;0.98;;;;;;;12.51;77.07;99985.69;5019190;28;20408;-66
2023/03/23 03:01:41;;;;;;;1.65;1.00;;;;;;;12.49;77.60;99979.69;5016755;28;20029;-66
2023/03/23 03:04:12;;;;;;;4.05;1.30;;;;;;;12.44;77.72;99980.66;5023427;28;20063;-66
2023/03/23 03:06:48;;;;;;;2.03;1.33;;;;;;;12.44;78.15;99992.78;5025585;28;20041;-66
2023/03/23 03:09:32;;;;;;;3.05;1.30;;;;;;;12.43;78.27;99985.91;5012595;28;20042;-65
2023/03/23 03:12:08;;;;;;;2.55;1.20;;;;;;;12.44;78.02;99987.59;5020477;28;20842;-66
2023/03/23 03:14:39;;;;;;;2.35;1.35;;;;;;;12.42;77.93;99979.03;5025792;28;20081;-66
2023/03/23 03:17:23;;;;;;;2.97;1.58;;;;;;;12.40;78.08;99960.94;5020147;28;20564;-66
2023/03/23 03:19:52;;;;;;;3.38;1.40;;;;;;;12.38;78.79;99951.47;5013070;28;20038;-66
2023/03/23 03:22:20;;;;;;;2.90;1.58;;;;;;;12.33;79.10;99961.13;5023365;28;20785;-66
2023/03/23 03:24:48;;;;;;;1.88;1.02;;;;;;;12.31;78.93;99958.59;5021126;28;20456;-66
2023/03/23 03:27:17;;;;;;;1.77;1.30;;;;;;;12.25;79.61;99966.56;5024604;28;20043;-66
2023/03/23 03:29:47;;;;;;;1.55;1.10;;;;;;;12.24;79.71;99987.31;5024314;28;20045;-66
2023/03/23 03:32:18;;;;;;;3.15;1.40;;;;;;;12.22;79.59;99983.91;5024069;28;20497;-66
2023/03/23 03:34:43;;;;;;;1.90;1.20;;;;;;;12.19;79.68;99984.00;5023702;28;20068;-66
2023/03/23 03:37:11;;;;;;;3.63;1.38;;;;;;;12.18;79.56;99987.47;5025179;28;20461;-65
2023/03/23 03:39:38;;;;;;;2.20;1.23;;;;;;;12.18;79.86;99993.50;5017199;28;20044;-65
2023/03/23 03:42:05;;;;;;;3.45;1.63;;;;;;;12.15;80.17;100010.88;5022326;28;20184;-66
2023/03/23 03:44:32;;;;;;;3.30;1.27;;;;;;;12.17;79.90;100009.06;5017657;28;20624;-66
2023/03/23 03:46:57;;;;;;;2.58;1.17;;;;;;;12.25;79.62;100004.56;5003857;28;20029;-66
2023/03/23 03:49:23;;;;;;;4.75;1.48;;;;;;;12.26;80.07;100014.88;5018342;28;20458;-66
2023/03/23 03:51:48;;;;;;;3.80;1.02;;;;;;;12.26;79.73;100003.66;5024096;28;20061;-65
2023/03/23 03:54:13;;;;;;;3.38;1.33;;;;;;;12.25;80.05;100014.94;5018823;28;20222;-66
2023/03/23 03:56:42;;;;;;;2.25;1.40;;;;;;;12.26;79.70;100004.50;5028637;28;20616;-66
2023/03/23 03:59:09;;;;;;;3.58;1.55;;;;;;;12.28;79.82;100009.66;5018526;28;20112;-66
2023/03/23 04:01:36;;;;;;;3.45;1.38;;;;;;;12.31;79.55;100009.56;5020934;28;20045;-66
2023/03/23 04:04:03;;;;;;;1.50;1.20;;;;;;;12.29;79.91;99998.38;5021048;28;20099;-65
2023/03/23 04:06:28;;;;;;;3.72;1.50;;;;;;;12.28;80.25;99997.56;5026336;28;20041;-66
2023/03/23 04:08:56;;;;;;;2.35;1.10;;;;;;;12.28;80.43;100000.16;5039903;28;20040;-66
2023/03/23 04:11:21;;;;;;;2.40;1.27;;;;;;;12.30;80.22;99984.53;5026386;28;20568;-66
2023/03/23 04:13:46;;;;;;;1.77;1.10;;;;;;;12.27;80.16;99989.81;5018557;28;20037;-66
2023/03/23 04:16:12;;;;;;;2.63;1.50;;;;;;;12.25;80.70;100002.81;5022490;28;20152;-66
2023/03/23 04:18:38;;;;;;;2.45;1.35;;;;;;;12.26;80.50;100014.88;5016587;28;20182;-65
2023/03/23 04:21:04;;;;;;;2.67;1.33;;;;;;;12.22;80.57;100008.09;5017612;28;20056;-66
2023/03/23 04:23:33;;;;;;;4.30;1.63;;;;;;;12.20;80.72;99993.44;5018806;28;20038;-66
2023/03/23 04:25:59;;;;;;;2.13;1.27;;;;;;;12.18;80.92;99979.69;5018823;28;20025;-66
2023/03/23 04:28:25;;;;;;;2.42;1.42;;;;;;;12.17;80.76;99985.75;5013693;28;20562;-66
2023/03/23 04:30:55;;;;;;;3.05;1.63;;;;;;;12.20;80.47;99996.03;5019332;28;20111;-66
2023/03/23 04:33:24;;;;;;;2.97;1.70;;;;;;;12.23;80.31;100002.00;5009538;28;20038;-66
2023/03/23 04:35:52;;;;;;;1.95;1.35;;;;;;;12.22;80.62;100005.50;5015609;28;20099;-67
2023/03/23 04:38:21;;;;;;;1.65;1.33;;;;;;;12.19;80.87;100004.72;5015538;28;20144;-66
2023/03/23 04:40:51;;;;;;;2.00;1.50;;;;;;;12.18;81.12;100001.28;5008302;28;20025;-66
2023/03/23 04:43:17;;;;;;;2.55;1.50;;;;;;;12.17;80.73;100004.75;5025602;28;20046;-66
2023/03/23 04:45:45;;;;;;;2.05;1.30;;;;;;;12.15;81.10;100010.88;5018308;28;20683;-66
2023/03/23 04:48:11;;;;;;;3.85;1.50;;;;;;;12.10;81.18;100011.00;5011433;28;20045;-71
2023/03/23 04:50:38;;;;;;;2.35;1.15;;;;;;;12.11;81.59;100012.69;5016933;28;20494;-70
2023/03/23 04:53:04;;;;;;;3.17;1.40;;;;;;;12.10;81.05;100011.00;5012413;28;20038;-70
2023/03/23 04:55:38;;;;;;;1.92;1.52;;;;;;;12.13;81.18;100007.47;5020829;28;20025;-71
2023/03/23 04:58:05;;;;;;;1.63;1.37;;;;;;;12.09;81.53;100001.53;5019227;28;20040;-71
2023/03/23 05:00:32;;;;;;;2.88;1.60;;;;;;;12.11;81.65;100004.09;5014313;28;20041;-70
2023/03/23 05:02:58;;;;;;;2.17;1.55;;;;;;;12.08;81.52;100007.59;5013006;28;20038;-71
2023/03/23 05:05:25;;;;;;;4.80;1.48;;;;;;;12.04;81.89;100006.00;5015243;28;20033;-70
2023/03/23 05:07:51;;;;;;;2.35;1.33;;;;;;;12.01;81.74;100010.41;5015029;28;20033;-70
2023/03/23 05:10:17;;;;;;;3.00;1.60;;;;;;;11.91;82.12;100022.72;5007035;28;20106;-71
2023/03/23 05:12:43;;;;;;;3.20;1.63;;;;;;;11.85;82.36;100028.06;5012711;28;20041;-71
2023/03/23 05:15:10;;;;;;;1.75;1.25;;;;;;;11.81;82.51;100021.28;5011402;28;20064;-71
2023/03/23 05:17:36;;;;;;;3.20;1.50;;;;;;;11.79;82.77;100017.84;5010873;28;20040;-71
2023/03/23 05:20:06;;;;;;;3.70;1.33;;;;;;;11.74;83.07;100022.31;5012012;28;20033;-70
2023/03/23 05:22:34;;;;;;;2.65;1.60;;;;;;;11.72;82.81;100022.31;5024305;28;20087;-71
2023/03/23 05:25:03;;;;;;;3.13;1.40;;;;;;;11.67;83.23;100019.00;5023926;28;20045;-71
2023/03/23 05:27:30;;;;;;;2.58;1.50;;;;;;;11.68;83.01;100023.31;5018706;28;20041;-71
2023/03/23 05:29:57;;;;;;;3.25;1.40;;;;;;;11.70;82.74;100023.25;5016145;28;20044;-70
2023/03/23 05:32:28;;;;;;;2.95;1.67;;;;;;;11.69;82.68;100011.22;5022797;28;20107;-71
2023/03/23 05:34:58;;;;;;;3.97;1.80;;;;;;;11.71;83.21;100024.97;5011454;28;20516;-70
2023/03/23 05:37:25;;;;;;;2.58;1.80;;;;;;;11.72;82.67;100016.31;5015721;28;20045;-70
2023/03/23 05:39:55;;;;;;;3.92;1.60;;;;;;;11.74;82.61;100024.91;5005854;28;20033;-70
2023/03/23 05:42:22;;;;;;;4.13;1.75;;;;;;;11.81;82.59;100027.28;5026391;28;20052;-70
2023/03/23 05:44:47;;;;;;;2.15;1.30;;;;;;;11.88;81.93;100028.84;5014044;28;20098;-70
2023/03/23 05:47:13;;;;;;;1.73;1.27;;;;;;;11.97;81.17;100034.66;5021403;28;20096;-70
2023/03/23 05:49:38;;;;;;;3.45;2.13;;;;;;;12.00;81.53;100042.34;5016025;28;20635;-70
2023/03/23 05:52:03;;;;;;;6.90;1.80;;;;;;;12.06;81.42;100034.44;5016565;28;20044;-70
2023/03/23 05:54:29;;;;;;;4.13;1.60;;;;;;;12.10;80.78;100029.13;5020096;28;20064;-70
2023/03/23 05:56:54;;;;;;;3.05;1.50;;;;;;;12.11;80.82;100024.81;5016719;28;20037;-70
2023/03/23 05:59:21;;;;;;;3.47;1.80;;;;;;;12.14;80.37;100020.38;4997308;28;20579;-70
2023/03/23 06:01:46;;;;;;;4.45;1.83;;;;;;;12.15;79.81;100029.84;5014747;28;20025;-70
2023/03/23 06:04:13;;;;;;;2.60;1.40;;;;;;;12.22;78.53;100027.97;5014627;28;20052;-70
2023/03/23 06:06:39;;;;;;;2.10;1.25;;;;;;;12.25;78.53;100030.47;5014689;28;20037;-70
2023/03/23 06:09:04;;;;;;;3.05;1.42;;;;;;;12.28;78.17;100039.03;5014252;28;20056;-70
2023/03/23 06:11:30;;;;;;;8.45;1.73;;;;;;;12.29;77.81;100032.94;5015409;28;20049;-70
2023/03/23 06:13:56;;;;;;;4.35;1.60;;;;;;;12.36;76.91;100018.06;5017923;28;20033;-70
2023/03/23 06:16:22;;;;;;;3.92;1.40;;;;;;;12.41;76.33;100021.38;5014973;28;20522;-70
2023/03/23 06:18:48;;;;;;;3.22;1.52;;;;;;;12.44;76.23;100024.72;5007386;28;20476;-69
2023/03/23 06:21:13;;;;;;;2.10;1.40;;;;;;;12.44;76.47;100021.28;5010776;28;20044;-70
2023/03/23 06:23:39;;;;;;;3.42;1.33;;;;;;;12.54;74.94;100002.00;5015787;28;20037;-65
2023/03/23 06:26:06;;;;;;;3.60;1.45;;;;;;;12.60;74.83;100016.53;5015192;28;20089;-65
2023/03/23 06:28:33;;;;;;;3.97;1.48;;;;;;;12.67;74.49;100029.25;5020662;28;20071;-66
2023/03/23 06:31:05;;;;;;;4.80;1.42;;;;;;;12.80;73.94;100027.16;5021510;28;20046;-66
2023/03/23 06:33:31;;;;;;;2.25;1.10;;;;;;;12.91;73.44;100023.38;5016415;28;20037;-65
2023/03/23 06:35:57;;;;;;;3.38;1.45;;;;;;;12.96;73.50;100023.25;5015364;28;20048;-66
2023/03/23 06:38:23;;;;;;;2.78;1.67;;;;;;;13.03;73.28;100019.59;5011593;28;20502;-66
2023/03/23 06:40:55;;;;;;;3.17;1.30;;;;;;;13.12;71.91;100013.28;5018522;28;20878;-65
2023/03/23 06:43:21;;;;;;;6.68;1.38;;;;;;;13.19;71.51;100013.03;5024472;28;20091;-66
2023/03/23 06:45:46;;;;;;;3.92;1.25;;;;;;;13.27;71.18;100013.66;5019138;28;20144;-66
2023/03/23 06:48:12;;;;;;;3.10;1.10;;;;;;;13.33;70.98;100025.56;5017939;28;20060;-65
2023/03/23 06:50:37;;;;;;;2.63;1.10;;;;;;;13.39;70.26;100020.19;5022163;28;20052;-65
2023/03/23 06:53:03;;;;;;;3.67;1.40;;;;;;;13.44;70.63;100031.31;5016604;28;20033;-66
2023/03/23 06:55:28;;;;;;;4.38;1.20;;;;;;;13.46;70.78;100035.56;5017579;28;20052;-65
2023/03/23 06:57:53;;;;;;;4.30;1.35;;;;;;;13.52;70.43;100030.16;5017267;28;20095;-66
2023/03/23 07:00:19;;;;;;;3.33;1.52;;;;;;;13.54;70.50;100038.75;5022410;28;20045;-67
2023/03/23 07:02:44;;;;;;;9.20;1.60;;;;;;;13.59;69.90;100030.81;5027391;28;20403;-66
2023/03/23 07:05:11;;;;;;;5.15;1.55;;;;;;;13.59;70.58;100035.16;5026761;28;20041;-66
2023/03/23 07:07:38;;;;;;;3.15;1.15;;;;;;;13.61;70.22;100034.22;5018016;28;20026;-67
2023/03/23 07:10:05;;;;;;;3.70;1.52;;;;;;;13.62;69.99;100028.13;5017244;28;20043;-65
2023/03/23 07:12:30;;;;;;;3.63;0.90;;;;;;;13.65;70.14;100040.16;5019534;28;20049;-66
2023/03/23 07:14:56;;;;;;;3.08;1.08;;;;;;;13.67;70.24;100038.34;5028380;28;20075;-66
2023/03/23 07:17:21;;;;;;;2.30;1.17;;;;;;;13.72;69.50;100026.06;5019731;28;20125;-66
2023/03/23 07:19:47;;;;;;;4.07;1.35;;;;;;;13.76;69.27;100032.84;5021923;28;20048;-66
2023/03/23 07:22:12;;;;;;;2.08;1.20;;;;;;;13.83;68.92;100030.00;5020917;28;20050;-66
2023/03/23 07:24:37;;;;;;;4.32;1.30;;;;;;;13.89;68.39;100013.38;5019237;28;20033;-66
2023/03/23 07:27:03;;;;;;;4.90;1.23;;;;;;;13.93;68.00;100012.34;5014431;28;20140;-66
2023/03/23 07:29:29;;;;;;;4.60;2.28;;;;;;;14.01;68.27;100007.72;5013098;28;20539;-66
2023/03/23 07:31:55;;;;;;;2.92;1.20;;;;;;;14.06;68.29;100013.66;5019740;28;20048;-66
2023/03/23 07:34:20;;;;;;;5.32;1.67;;;;;;;14.09;68.26;100010.94;5019681;28;20069;-66
2023/03/23 07:36:46;;;;;;;3.05;1.20;;;;;;;14.13;67.69;99991.72;5013290;28;20679;-66
2023/03/23 07:39:12;;;;;;;4.88;1.13;;;;;;;14.11;66.26;99967.53;5013761;28;20025;-66
2023/03/23 07:41:38;;;;;;;2.97;1.33;;;;;;;14.16;65.77;99964.81;5015037;28;20061;-66
2023/03/23 07:44:05;;;;;;;1.80;1.15;;;;;;;14.18;65.96;99963.84;5014957;28;20502;-67
2023/03/23 07:46:31;;;;;;;5.60;1.33;;;;;;;14.24;65.20;99957.56;5010163;28;20483;-66
2023/03/23 07:48:57;;;;;;;4.95;1.30;;;;;;;14.29;65.12;99961.69;5032161;28;20031;-67
2023/03/23 07:51:22;;;;;;;6.05;1.20;;;;;;;14.39;65.37;99967.44;5020785;28;20584;-66
2023/03/23 07:53:49;;;;;;;4.20;1.38;;;;;;;14.42;65.38;99962.13;5017624;28;20045;-65
2023/03/23 07:56:18;;;;;;;3.67;1.40;;;;;;;14.54;64.69;99946.91;5018730;28;20043;-65
2023/03/23 07:58:45;;;;;;;5.22;1.52;;;;;;;14.62;64.28;99941.44;5022179;28;20025;-65
2023/03/23 08:01:10;;;;;;;2.03;1.30;;;;;;;14.66;63.41;99932.63;5018837;28;20125;-66
2023/03/23 08:03:37;;;;;;;2.20;0.80;;;;;;;14.73;63.32;99935.81;5012919;28;20042;-66
2023/03/23 08:06:03;;;;;;;1.98;1.00;;;;;;;14.75;63.01;99929.63;5009685;28;20037;-66
2023/03/23 08:08:30;;;;;;;3.38;1.20;;;;;;;14.84;63.21;99937.09;5018268;28;20136;-66
2023/03/23 08:10:55;;;;;;;4.10;1.02;;;;;;;14.87;61.94;99918.75;5015501;28;20122;-66
2023/03/23 08:13:21;;;;;;;2.15;1.10;;;;;;;14.92;62.11;99921.19;5016473;28;20131;-67
2023/03/23 08:15:46;;;;;;;7.68;1.77;;;;;;;14.95;62.68;99928.88;5014179;28;20160;-66
2023/03/23 08:18:12;;;;;;;2.72;1.15;;;;;;;15.01;62.57;99932.09;5014968;28;20049;-67
2023/03/23 08:20:37;;;;;;;3.42;1.40;;;;;;;15.03;62.19;99926.81;5013827;28;20211;-66
2023/03/23 08:23:03;;;;;;;3.53;1.15;;;;;;;15.03;62.32;99939.81;5013890;28;20641;-67
2023/03/23 08:25:33;;;;;;;6.07;1.33;;;;;;;15.05;61.59;99920.63;5012852;28;20136;-67
2023/03/23 08:28:01;;;;;;;6.05;1.13;;;;;;;15.08;61.51;99933.53;5017992;28;20038;-66
2023/03/23 08:30:29;;;;;;;1.63;0.80;;;;;;;15.12;61.29;99934.25;5018739;28;20178;-67
2023/03/23 08:33:00;;;;;;;2.22;1.38;;;;;;;15.11;60.74;99927.34;5017807;28;20140;-68
2023/03/23 08:35:25;;;;;;;4.55;1.15;;;;;;;15.08;60.47;99919.66;5001904;28;20062;-66
2023/03/23 08:37:52;;;;;;;3.45;1.25;;;;;;;15.13;61.53;99936.81;5024463;28;20279;-67
2023/03/23 08:40:19;;;;;;;5.15;1.42;;;;;;;15.13;61.24;99941.16;5015924;28;20044;-67
2023/03/23 08:42:46;;;;;;;3.70;1.27;;;;;;;15.16;61.59;99946.25;5021028;28;20033;-66
2023/03/23 08:45:14;;;;;;;4.03;1.20;;;;;;;15.19;60.82;99928.75;5031715;28;20040;-66
2023/03/23 08:47:40;;;;;;;5.03;1.20;;;;;;;15.28;60.78;99931.88;5031548;28;20048;-66
2023/03/23 08:50:07;;;;;;;4.10;1.20;;;;;;;15.31;60.07;99903.13;5023034;28;20594;-67
2023/03/23 08:52:33;;;;;;;2.95;0.90;;;;;;;15.37;60.20;99914.13;5019438;28;20076;-66
2023/03/23 08:54:59;;;;;;;4.82;1.60;;;;;;;15.48;59.95;99917.13;5021508;28;20055;-67
2023/03/23 08:57:26;;;;;;;3.70;1.20;;;;;;;15.50;60.34;99930.06;5020861;28;20026;-67
2023/03/23 08:59:54;;;;;;;2.35;1.33;;;;;;;15.58;59.59;99922.81;5020440;28;20037;-67
2023/03/23 09:02:19;;;;;;;4.68;1.20;;;;;;;15.64;59.80;99927.78;5020151;28;20322;-66
2023/03/23 09:04:45;;;;;;;2.60;1.15;;;;;;;15.66;59.57;99920.75;5018979;28;20087;-67
2023/03/23 09:07:14;;;;;;;4.57;1.27;;;;;;;15.70;59.69;99945.78;5021975;28;20112;-67
2023/03/23 09:09:40;;;;;;;1.60;0.90;;;;;;;15.75;59.80;99941.22;5009615;28;20555;-66
2023/03/23 09:12:08;;;;;;;3.65;1.30;;;;;;;15.79;58.30;99923.69;5016024;28;20628;-66
2023/03/23 09:14:34;;;;;;;2.58;1.13;;;;;;;15.85;58.69;99939.88;5016255;28;20041;-67
2023/03/23 09:16:59;;;;;;;3.97;1.35;;;;;;;15.91;58.45;99929.19;5018677;28;20108;-66
2023/03/23 09:19:24;;;;;;;3.70;1.25;;;;;;;15.99;58.91;99954.94;5024843;28;20048;-67
2023/03/23 09:21:50;;;;;;;4.38;1.25;;;;;;;15.91;59.43;99957.88;5019674;28;20036;-67
2023/03/23 09:24:16;;;;;;;5.70;1.63;;;;;;;15.88;58.62;99951.97;5011587;28;20156;-67
2023/03/23 09:26:41;;;;;;;6.80;1.30;;;;;;;15.86;58.79;99948.56;5008188;28;20864;-67
2023/03/23 09:29:07;;;;;;;4.80;1.20;;;;;;;15.73;57.97;99938.66;5022630;28;20037;-67
2023/03/23 09:31:33;;;;;;;4.03;1.40;;;;;;;15.61;57.21;99920.06;5018660;28;20029;-67
2023/03/23 09:33:59;;;;;;;4.82;1.33;;;;;;;15.68;57.96;99935.41;5001974;28;20038;-67
2023/03/23 09:36:31;;;;;;;4.03;1.42;;;;;;;15.73;57.45;99930.84;5009234;28;20152;-67
2023/03/23 09:38:58;;;;;;;4.53;1.30;;;;;;;15.70;56.70;99917.94;5026201;28;20044;-66
2023/03/23 09:41:44;;;;;;;4.80;1.33;;;;;;;15.70;57.55;99933.56;5014073;28;20119;-67
2023/03/23 09:44:28;;;;;;;3.63;1.40;;;;;;;15.71;56.98;99932.66;5017552;28;20096;-67
2023/03/23 09:47:08;;;;;;;5.25;1.02;;;;;;;15.83;57.44;99946.94;5010908;28;20060;-67
2023/03/23 09:49:55;;;;;;;4.00;1.33;;;;;;;15.85;56.68;99945.09;5017322;28;20045;-67
2023/03/23 09:52:21;;;;;;;3.30;1.20;;;;;;;15.74;57.00;99965.56;5012885;28;20129;-67
2023/03/23 09:54:50;;;;;;;3.45;1.25;;;;;;;15.73;58.18;99964.72;5018152;28;20029;-67
2023/03/23 09:57:47;;;;;;;6.55;1.42;;;;;;;15.78;58.38;99987.13;5014930;28;20180;-67
2023/03/23 10:00:15;;;;;;;4.47;1.10;;;;;;;15.68;58.76;99994.47;5016042;28;20041;-67
2023/03/23 10:02:53;;;;;;;2.03;0.73;;;;;;;15.80;59.46;100007.00;5028257;28;20044;-67
2023/03/23 10:05:41;;;;;;;3.22;0.90;;;;;;;15.97;58.47;99975.84;5017476;28;20037;-66
2023/03/23 10:08:31;;;;;;;2.42;1.02;;;;;;;16.30;58.48;99974.38;5021114;28;20068;-67
2023/03/23 10:11:37;;;;;;;0.77;0.60;;;;;;;16.36;58.12;99960.22;5017567;28;20508;-67
2023/03/23 10:14:28;;;;;;;1.03;0.60;;;;;;;16.62;57.97;99957.28;5002408;28;20526;-67
2023/03/23 10:17:03;;;;;;;3.88;0.90;;;;;;;16.88;57.67;99953.50;4995846;28;20596;-67
2023/03/23 10:19:41;;;;;;;1.98;0.88;;;;;;;17.00;57.40;99954.69;4998486;28;20498;-66
2023/03/23 10:22:11;;;;;;;3.05;0.60;;;;;;;16.78;57.18;99955.69;5017933;28;20037;-67
2023/03/23 10:24:52;;;;;;;5.20;1.20;;;;;;;16.65;58.14;99967.56;5014498;28;20040;-66
2023/03/23 10:27:25;;;;;;;1.80;0.80;;;;;;;16.39;59.33;99986.16;5025222;28;20040;-66
2023/03/23 10:30:11;;;;;;;2.58;0.70;;;;;;;16.27;59.72;100012.78;5019420;28;20116;-66
2023/03/23 10:32:50;;;;;;;1.42;0.80;;;;;;;16.23;59.31;100000.81;5019215;28;20038;-67
2023/03/23 10:35:32;;;;;;;2.60;0.82;;;;;;;16.12;59.70;100016.06;5018531;28;20068;-67
2023/03/23 10:38:06;;;;;;;2.67;0.82;;;;;;;15.93;60.88;100039.47;5012832;28;20723;-67
2023/03/23 10:40:34;;;;;;;2.38;0.60;;;;;;;15.79;60.81;100051.38;5014600;28;20793;-67
2023/03/23 10:43:01;;;;;;;1.85;0.80;;;;;;;15.83;60.96;100051.16;5016303;28;20084;-67
2023/03/23 10:45:32;;;;;;;0.63;0.50;;;;;;;16.02;61.37;100049.50;5018171;28;20045;-68
2023/03/23 10:48:10;;;;;;;2.00;1.10;;;;;;;16.14;61.08;100037.72;5017879;28;20787;-68
2023/03/23 10:50:38;;;;;;;3.90;0.93;;;;;;;16.21;60.92;100042.59;5017201;28;20049;-67
2023/03/23 10:53:15;;;;;;;2.15;0.93;;;;;;;16.45;60.25;100021.56;5021752;28;20029;-67
2023/03/23 10:55:43;;;;;;;2.17;0.70;;;;;;;16.92;58.67;99991.59;5019672;28;20025;-68
2023/03/23 10:58:23;;;;;;;3.17;0.93;;;;;;;17.16;58.44;99987.84;5017552;28;20100;-67
2023/03/23 11:00:50;;;;;;;2.05;0.60;;;;;;;17.26;57.63;99976.03;5012405;28;20041;-68
2023/03/23 11:03:18;;;;;;;3.90;0.82;;;;;;;17.40;57.58;99973.59;5018099;28;20156;-67
2023/03/23 11:05:57;;;;;;;1.55;0.57;;;;;;;17.41;57.94;99980.53;5011682;28;20080;-67
2023/03/23 11:08:33;;;;;;;1.42;0.50;;;;;;;17.35;58.17;99990.41;5024957;28;20072;-67
2023/03/23 11:11:17;;;;;;;1.60;0.68;;;;;;;17.18;59.01;99996.47;5017474;28;20022;-67
2023/03/23 11:13:47;;;;;;;2.72;0.60;;;;;;;17.15;59.40;99996.59;5019619;28;20946;-67
2023/03/23 11:16:28;;;;;;;1.05;0.70;;;;;;;17.00;59.32;100006.91;5015626;28;20045;-67
2023/03/23 11:18:54;;;;;;;1.58;0.60;;;;;;;16.81;59.54;100004.28;5012616;28;20046;-67
2023/03/23 11:21:22;;;;;;;3.38;0.57;;;;;;;16.65;60.76;100034.59;5023181;28;20083;-67
2023/03/23 11:23:54;;;;;;;2.20;0.60;;;;;;;16.51;60.72;100029.97;5026838;28;20037;-66
2023/03/23 11:26:30;;;;;;;0.93;0.50;;;;;;;16.44;60.32;100028.56;5016627;28;20108;-67
2023/03/23 11:29:03;;;;;;;1.75;0.60;;;;;;;16.43;60.55;100036.44;5006455;28;20042;-67
2023/03/23 11:31:39;;;;;;;2.05;0.57;;;;;;;16.38;60.38;100026.22;5015602;28;20045;-66
2023/03/23 11:34:15;;;;;;;3.58;0.77;;;;;;;16.32;60.62;100027.31;5011884;28;20084;-66
2023/03/23 11:36:48;;;;;;;1.13;0.65;;;;;;;16.41;60.64;100033.91;5010243;28;20301;-66
2023/03/23 11:39:26;;;;;;;1.60;0.40;;;;;;;16.48;60.40;100024.91;5017200;28;20029;-65